Time;durP1;ratioP1;P1;durP2;ratioP2;P2;SDS_P1;SDS_P2;PMS_P1;PMS_P2;Temp;Humidity;BMP_temperature;BMP_pressure;BME280_temperature;BME280_humidity;BME280_pressure;Samples;Min_cycle;Max_cycle;Signal;HPM_P1;HPM_P2
2021/08/24 00:00:51;;;;;;;12.00;10.90;;;15.10;99.90;;;;;;5086907;28;20482;-72
2021/08/24 00:03:18;;;;;;;14.67;12.20;;;15.10;99.90;;;;;;5100170;27;20934;-72
2021/08/24 00:05:47;;;;;;;14.23;12.83;;;15.00;99.90;;;;;;5100189;27;20532;-72
2021/08/24 00:08:14;;;;;;;13.03;11.83;;;15.00;99.90;;;;;;5092963;28;20929;-72
2021/08/24 00:10:43;;;;;;;13.47;12.17;;;15.00;99.90;;;;;;5087613;28;20465;-72
2021/08/24 00:13:11;;;;;;;12.97;11.10;;;15.00;99.90;;;;;;5088763;28;20464;-72
2021/08/24 00:15:39;;;;;;;13.37;11.97;;;15.00;99.90;;;;;;5090326;28;20450;-70
2021/08/24 00:18:08;;;;;;;12.67;11.37;;;14.90;99.90;;;;;;5089882;28;20458;-72
2021/08/24 00:20:35;;;;;;;14.60;13.10;;;14.90;99.90;;;;;;5088529;28;20454;-71
2021/08/24 00:23:04;;;;;;;14.07;12.53;;;15.00;99.90;;;;;;5090030;28;21103;-71
2021/08/24 00:25:31;;;;;;;13.23;11.93;;;15.00;99.90;;;;;;5089924;28;20434;-71
2021/08/24 00:27:58;;;;;;;13.20;11.80;;;15.00;99.90;;;;;;5089704;28;20452;-71
2021/08/24 00:30:25;;;;;;;11.90;10.73;;;15.00;99.90;;;;;;5088118;28;20467;-71
2021/08/24 00:32:53;;;;;;;10.57;9.57;;;15.00;99.90;;;;;;5089596;28;20449;-71
2021/08/24 00:35:20;;;;;;;9.27;8.37;;;15.00;99.90;;;;;;5089129;28;20494;-71
2021/08/24 00:37:47;;;;;;;9.00;8.03;;;15.00;99.90;;;;;;5089576;28;20449;-70
2021/08/24 00:40:15;;;;;;;8.80;7.90;;;15.00;99.90;;;;;;5089194;28;20905;-70
2021/08/24 00:42:43;;;;;;;7.57;6.77;;;15.00;99.90;;;;;;5089334;28;20462;-70
2021/08/24 00:45:12;;;;;;;7.70;6.80;;;15.00;99.90;;;;;;5089083;28;21073;-70
2021/08/24 00:47:42;;;;;;;6.17;5.27;;;15.00;99.90;;;;;;5088931;28;20449;-69
2021/08/24 00:50:20;;;;;;;8.03;6.60;;;15.00;99.90;;;;;;5089009;28;20446;-70
2021/08/24 00:52:48;;;;;;;9.70;5.60;;;15.00;99.90;;;;;;5089763;28;20426;-69
2021/08/24 00:55:17;;;;;;;6.97;5.57;;;14.90;99.90;;;;;;5089227;28;20450;-70
2021/08/24 00:57:45;;;;;;;5.47;4.63;;;14.90;99.90;;;;;;5089516;28;20452;-70
2021/08/24 01:00:13;;;;;;;6.60;5.30;;;14.90;99.90;;;;;;5088666;28;21136;-69
2021/08/24 01:02:40;;;;;;;6.63;5.20;;;14.90;99.90;;;;;;5089438;28;20480;-70
2021/08/24 01:05:09;;;;;;;6.40;5.10;;;14.80;99.90;;;;;;5088793;28;20478;-69
2021/08/24 01:07:42;;;;;;;5.53;4.70;;;14.80;99.90;;;;;;5089851;28;20533;-69
2021/08/24 01:10:15;;;;;;;5.27;4.67;;;14.80;99.90;;;;;;5088863;28;20452;-70
2021/08/24 01:12:49;;;;;;;6.77;5.80;;;14.70;99.90;;;;;;5089721;28;20837;-69
2021/08/24 01:15:24;;;;;;;5.50;4.73;;;14.70;99.90;;;;;;5089343;28;20433;-70
2021/08/24 01:17:57;;;;;;;6.33;4.80;;;14.70;99.90;;;;;;5090006;28;20521;-69
2021/08/24 01:20:45;;;;;;;7.03;5.10;;;14.70;99.90;;;;;;5088522;28;20458;-70
2021/08/24 01:23:47;;;;;;;5.13;4.60;;;14.70;99.90;;;;;;5089558;28;20438;-69
2021/08/24 01:26:21;;;;;;;6.87;4.60;;;14.70;99.90;;;;;;5089458;28;20476;-70
2021/08/24 01:29:10;;;;;;;8.13;4.20;;;14.70;99.90;;;;;;5089568;28;20799;-70
2021/08/24 01:32:04;;;;;;;6.40;4.70;;;14.70;99.90;;;;;;5055254;28;20470;-70
2021/08/24 01:35:02;;;;;;;7.67;5.00;;;14.70;99.90;;;;;;5089311;28;20490;-72
2021/08/24 01:37:39;;;;;;;5.50;4.73;;;14.60;99.90;;;;;;5084315;28;20455;-72
2021/08/24 01:40:09;;;;;;;7.17;5.60;;;14.60;99.90;;;;;;5088871;28;20445;-70
2021/08/24 01:42:37;;;;;;;6.20;5.50;;;14.50;99.90;;;;;;5089239;28;21054;-70
2021/08/24 01:45:10;;;;;;;7.30;6.40;;;14.50;99.90;;;;;;5089257;28;20474;-71
2021/08/24 01:47:47;;;;;;;8.50;5.53;;;14.40;99.90;;;;;;5089393;28;20509;-71
2021/08/24 01:50:18;;;;;;;5.30;4.80;;;14.30;99.90;;;;;;5088824;28;20434;-71
2021/08/24 01:52:50;;;;;;;7.70;5.50;;;14.20;99.90;;;;;;5089361;28;20919;-70
2021/08/24 01:55:21;;;;;;;6.27;4.90;;;14.00;99.90;;;;;;5089108;28;20871;-71
2021/08/24 01:57:53;;;;;;;5.87;5.27;;;13.90;99.90;;;;;;5089521;28;20430;-71
2021/08/24 02:00:20;;;;;;;6.60;6.00;;;13.90;99.90;;;;;;5090641;28;20430;-71
2021/08/24 02:02:50;;;;;;;7.00;6.10;;;13.80;99.90;;;;;;5092777;28;20498;-70
2021/08/24 02:05:22;;;;;;;8.87;6.10;;;13.70;99.90;;;;;;5092625;28;20477;-71
2021/08/24 02:07:55;;;;;;;7.23;6.47;;;13.60;99.90;;;;;;5092477;28;21034;-71
2021/08/24 02:10:25;;;;;;;9.27;6.83;;;13.40;99.90;;;;;;5092195;28;20433;-70
2021/08/24 02:12:54;;;;;;;9.60;7.37;;;13.30;99.90;;;;;;5091254;28;20462;-71
2021/08/24 02:15:28;;;;;;;9.43;8.07;;;13.20;99.90;;;;;;5092312;28;20438;-71
2021/08/24 02:17:59;;;;;;;10.67;7.70;;;13.20;99.90;;;;;;5092794;28;20427;-71
2021/08/24 02:20:30;;;;;;;9.00;8.10;;;13.20;99.90;;;;;;5091428;28;20878;-70
2021/08/24 02:23:04;;;;;;;8.47;7.63;;;13.10;99.90;;;;;;5092317;28;20458;-71
2021/08/24 02:25:36;;;;;;;10.57;8.20;;;13.10;99.90;;;;;;5091893;28;20469;-71
2021/08/24 02:28:08;;;;;;;9.53;8.40;;;13.10;99.90;;;;;;5092652;28;20457;-70
2021/08/24 02:30:42;;;;;;;10.13;9.13;;;13.10;99.90;;;;;;5091468;28;20430;-71
2021/08/24 02:33:09;;;;;;;11.00;8.83;;;13.10;99.90;;;;;;5092401;28;20509;-71
2021/08/24 02:35:40;;;;;;;9.70;8.57;;;13.10;99.90;;;;;;5091724;28;20438;-71
2021/08/24 02:38:13;;;;;;;12.07;8.97;;;13.10;99.90;;;;;;5092492;28;20518;-71
2021/08/24 02:40:45;;;;;;;10.13;9.13;;;13.00;99.90;;;;;;5091152;28;20525;-71
2021/08/24 02:43:20;;;;;;;10.90;9.40;;;12.90;99.90;;;;;;5092214;28;20442;-71
2021/08/24 02:45:54;;;;;;;12.97;10.17;;;12.80;99.90;;;;;;5091149;28;20578;-71
2021/08/24 02:48:22;;;;;;;13.40;11.37;;;12.80;99.90;;;;;;5092161;28;20434;-71
2021/08/24 02:50:50;;;;;;;11.10;8.40;;;12.80;99.90;;;;;;5090638;28;20553;-71
2021/08/24 02:53:21;;;;;;;11.90;10.30;;;12.70;99.90;;;;;;5092085;28;20534;-70
2021/08/24 02:55:47;;;;;;;11.53;10.40;;;12.70;99.90;;;;;;5091443;28;20444;-71
2021/08/24 02:58:14;;;;;;;15.80;11.70;;;12.70;99.90;;;;;;5091644;28;20457;-71
2021/08/24 03:00:41;;;;;;;16.00;12.27;;;12.60;99.90;;;;;;5090569;28;20470;-70
2021/08/24 03:03:08;;;;;;;13.37;11.07;;;12.60;99.90;;;;;;5091746;28;20882;-71
2021/08/24 03:05:35;;;;;;;12.30;10.00;;;12.60;99.90;;;;;;5091063;28;20481;-71
2021/08/24 03:08:02;;;;;;;10.03;9.03;;;12.50;99.90;;;;;;5091382;28;20442;-70
2021/08/24 03:10:34;;;;;;;11.90;9.10;;;12.50;99.90;;;;;;5090266;28;20449;-71
2021/08/24 03:13:11;;;;;;;11.70;9.73;;;12.50;99.90;;;;;;5091480;28;20446;-70
2021/08/24 03:15:42;;;;;;;13.00;9.90;;;12.50;99.90;;;;;;5091447;28;20538;-71
2021/08/24 03:18:14;;;;;;;10.13;9.10;;;12.50;99.90;;;;;;5091335;28;20452;-71
2021/08/24 03:20:45;;;;;;;12.23;11.00;;;12.30;99.90;;;;;;5090564;28;20952;-71
2021/08/24 03:23:15;;;;;;;14.50;12.30;;;12.30;99.90;;;;;;5091294;28;20954;-71
2021/08/24 03:25:47;;;;;;;12.60;11.30;;;12.20;99.90;;;;;;5090840;28;21059;-71
2021/08/24 03:28:16;;;;;;;13.70;10.83;;;12.30;99.90;;;;;;5091502;28;20530;-70
2021/08/24 03:30:43;;;;;;;12.43;10.93;;;12.20;99.90;;;;;;5090699;28;20459;-72
2021/08/24 03:33:14;;;;;;;14.20;12.10;;;12.10;99.90;;;;;;5091391;28;20458;-70
2021/08/24 03:35:41;;;;;;;19.47;15.00;;;12.10;99.90;;;;;;5091187;28;20509;-70
2021/08/24 03:38:09;;;;;;;13.87;11.80;;;12.00;99.90;;;;;;5091148;28;20448;-71
2021/08/24 03:40:36;;;;;;;15.60;13.30;;;12.00;99.90;;;;;;5090255;28;20966;-71
2021/08/24 03:43:05;;;;;;;13.23;11.93;;;12.00;99.90;;;;;;5091314;28;20450;-70
2021/08/24 03:45:33;;;;;;;12.23;10.93;;;12.00;99.90;;;;;;5090820;28;20481;-70
2021/08/24 03:48:00;;;;;;;13.30;11.43;;;12.00;99.90;;;;;;5091322;28;20553;-70
2021/08/24 03:50:27;;;;;;;18.43;14.97;;;11.90;99.90;;;;;;5089961;28;21215;-70
2021/08/24 03:52:54;;;;;;;15.43;13.83;;;12.00;99.90;;;;;;5090673;28;20530;-72
2021/08/24 03:55:21;;;;;;;14.13;12.63;;;12.00;99.90;;;;;;5090317;28;20453;-71
2021/08/24 03:57:48;;;;;;;15.33;13.13;;;11.90;99.90;;;;;;5091113;28;20540;-71
2021/08/24 04:00:17;;;;;;;18.53;12.50;;;11.80;99.90;;;;;;5089879;28;20533;-71
2021/08/24 04:02:44;;;;;;;13.33;11.73;;;11.80;99.90;;;;;;5090542;28;21110;-71
2021/08/24 04:05:12;;;;;;;15.50;13.90;;;11.80;99.90;;;;;;5090126;28;20477;-70
2021/08/24 04:07:39;;;;;;;17.20;13.03;;;11.80;99.90;;;;;;5090394;28;20438;-71
2021/08/24 04:10:07;;;;;;;16.00;12.80;;;11.80;99.90;;;;;;5090088;28;20751;-71
2021/08/24 04:12:34;;;;;;;14.10;11.97;;;11.80;99.90;;;;;;5090393;28;20494;-70
2021/08/24 04:15:02;;;;;;;17.07;12.70;;;11.80;99.90;;;;;;5090043;28;20936;-70
2021/08/24 04:17:30;;;;;;;14.67;12.40;;;11.80;99.90;;;;;;5090456;28;20804;-71
2021/08/24 04:19:57;;;;;;;13.70;12.20;;;11.80;99.90;;;;;;5089231;28;20839;-71
2021/08/24 04:22:24;;;;;;;14.67;13.07;;;11.80;99.90;;;;;;5089132;28;20550;-71
2021/08/24 04:24:51;;;;;;;17.23;13.33;;;11.70;99.90;;;;;;5089867;28;20480;-70
2021/08/24 04:27:18;;;;;;;14.53;12.30;;;11.70;99.90;;;;;;5090422;28;20453;-71
2021/08/24 04:29:45;;;;;;;16.80;13.97;;;11.70;99.90;;;;;;5089480;28;20450;-70
2021/08/24 04:32:15;;;;;;;17.43;13.83;;;11.60;99.90;;;;;;5090117;28;20470;-71
2021/08/24 04:34:44;;;;;;;20.10;12.60;;;11.60;99.90;;;;;;5089678;28;20796;-71
2021/08/24 04:37:10;;;;;;;14.07;12.33;;;11.70;99.90;;;;;;5090364;28;20850;-70
2021/08/24 04:39:38;;;;;;;16.00;13.27;;;11.70;99.90;;;;;;5089470;28;20446;-71
2021/08/24 04:42:05;;;;;;;14.17;12.83;;;11.70;99.90;;;;;;5090053;28;20544;-70
2021/08/24 04:44:31;;;;;;;12.20;10.90;;;11.70;99.90;;;;;;5089307;28;20530;-70
2021/08/24 04:46:58;;;;;;;17.57;14.20;;;11.70;99.90;;;;;;5089881;28;20954;-69
2021/08/24 04:49:25;;;;;;;14.57;12.97;;;11.60;99.90;;;;;;5089073;28;20533;-72
2021/08/24 04:51:54;;;;;;;17.77;14.27;;;11.70;99.90;;;;;;5090126;28;20474;-72
2021/08/24 04:54:20;;;;;;;15.77;12.87;;;11.70;99.90;;;;;;5089722;28;20814;-72
2021/08/24 04:56:47;;;;;;;18.13;13.00;;;11.70;99.90;;;;;;5090113;28;20521;-71
2021/08/24 04:59:14;;;;;;;16.10;13.90;;;11.70;99.90;;;;;;5089007;28;21014;-70
2021/08/24 05:01:41;;;;;;;17.90;14.60;;;11.60;99.90;;;;;;5089492;28;20472;-71
2021/08/24 05:04:08;;;;;;;24.70;16.40;;;11.60;99.90;;;;;;5089960;28;20470;-71
2021/08/24 05:06:35;;;;;;;21.00;15.50;;;11.70;99.90;;;;;;5089327;28;20486;-71
2021/08/24 05:09:03;;;;;;;16.20;14.17;;;11.80;99.90;;;;;;5089206;28;20446;-71
2021/08/24 05:11:30;;;;;;;14.67;13.10;;;11.90;99.90;;;;;;5089494;28;20561;-71
2021/08/24 05:13:57;;;;;;;16.93;14.73;;;12.00;99.90;;;;;;5089495;28;20871;-71
2021/08/24 05:16:24;;;;;;;17.93;14.77;;;12.10;99.90;;;;;;5089336;28;20438;-71
2021/08/24 05:18:51;;;;;;;18.30;14.77;;;12.10;99.90;;;;;;5089474;28;20545;-70
2021/08/24 05:21:18;;;;;;;18.37;15.77;;;12.10;99.90;;;;;;5089120;28;20462;-71
2021/08/24 05:23:45;;;;;;;16.17;13.80;;;12.10;99.90;;;;;;5089767;28;20533;-71
2021/08/24 05:26:18;;;;;;;17.73;14.97;;;12.10;99.90;;;;;;5089390;28;20566;-71
2021/08/24 05:28:45;;;;;;;17.70;15.90;;;12.30;99.90;;;;;;5089527;28;20442;-71
2021/08/24 05:31:13;;;;;;;18.90;14.67;;;12.40;99.90;;;;;;5089080;28;20504;-71
2021/08/24 05:33:39;;;;;;;17.97;16.07;;;12.50;99.90;;;;;;5090717;28;20832;-72
2021/08/24 05:36:06;;;;;;;16.80;15.10;;;12.60;99.90;;;;;;5093477;28;20544;-72
2021/08/24 05:38:34;;;;;;;21.23;18.83;;;12.80;99.90;;;;;;5093561;28;20557;-71
2021/08/24 05:41:02;;;;;;;21.50;19.20;;;13.00;99.90;;;;;;5092226;28;20470;-71
2021/08/24 05:43:31;;;;;;;21.60;19.40;;;13.20;99.90;;;;;;5093269;28;20442;-71
2021/08/24 05:46:01;;;;;;;19.23;16.57;;;13.30;99.90;;;;;;5093445;28;20482;-71
2021/08/24 05:48:29;;;;;;;19.03;16.43;;;13.30;99.90;;;;;;5093451;28;20442;-71
2021/08/24 05:50:56;;;;;;;17.37;15.57;;;13.30;99.90;;;;;;5092660;28;20552;-71
2021/08/24 05:53:24;;;;;;;18.60;16.70;;;13.40;99.90;;;;;;5093148;28;20445;-71
2021/08/24 05:55:51;;;;;;;19.13;17.00;;;13.50;99.90;;;;;;5092720;28;20437;-71
2021/08/24 05:58:18;;;;;;;19.53;17.50;;;13.50;99.90;;;;;;5093367;28;20442;-71
2021/08/24 06:00:47;;;;;;;18.37;16.57;;;13.70;99.90;;;;;;5091956;28;20500;-71
2021/08/24 06:03:14;;;;;;;17.20;15.50;;;13.70;99.90;;;;;;5092948;28;20445;-72
2021/08/24 06:05:42;;;;;;;17.23;15.43;;;13.80;99.90;;;;;;5091821;28;20478;-71
2021/08/24 06:08:09;;;;;;;16.00;14.37;;;13.80;99.90;;;;;;5092328;28;20834;-72
2021/08/24 06:10:37;;;;;;;18.87;15.10;;;13.90;99.90;;;;;;5091562;28;20802;-72
2021/08/24 06:13:04;;;;;;;16.03;14.40;;;14.10;99.90;;;;;;5092652;28;20442;-72
2021/08/24 06:15:31;;;;;;;15.30;13.70;;;14.00;99.90;;;;;;5091716;28;20446;-71
2021/08/24 06:18:00;;;;;;;16.70;14.97;;;14.00;99.90;;;;;;5092537;28;20518;-71
2021/08/24 06:20:26;;;;;;;16.83;15.20;;;14.20;99.90;;;;;;5090992;28;20541;-72
2021/08/24 06:22:53;;;;;;;17.23;15.40;;;14.50;99.90;;;;;;5092042;28;20438;-72
2021/08/24 06:25:22;;;;;;;15.10;13.60;;;14.70;99.90;;;;;;5091855;28;20573;-72
2021/08/24 06:27:49;;;;;;;17.37;14.03;;;14.90;99.90;;;;;;5091827;28;20462;-72
2021/08/24 06:30:17;;;;;;;16.70;15.13;;;15.00;99.90;;;;;;5091335;28;20529;-71
2021/08/24 06:32:47;;;;;;;13.97;12.60;;;15.20;99.90;;;;;;5091574;28;20462;-70
2021/08/24 06:35:16;;;;;;;12.30;11.10;;;15.30;99.90;;;;;;5091645;28;21060;-72
2021/08/24 06:37:43;;;;;;;13.10;11.30;;;15.30;99.90;;;;;;5091772;28;20446;-72
2021/08/24 06:40:13;;;;;;;11.73;10.67;;;15.40;99.90;;;;;;5090875;28;20811;-72
2021/08/24 06:42:41;;;;;;;12.23;10.97;;;15.40;99.90;;;;;;5091488;28;20462;-72
2021/08/24 06:45:11;;;;;;;10.63;9.53;;;15.50;99.90;;;;;;5090395;28;20500;-72
2021/08/24 06:47:38;;;;;;;11.87;10.67;;;15.50;99.90;;;;;;5091593;28;20544;-72
2021/08/24 06:50:05;;;;;;;11.60;10.40;;;15.60;99.90;;;;;;5090758;28;20550;-72
2021/08/24 06:52:34;;;;;;;11.40;10.13;;;15.80;99.90;;;;;;5091593;28;20473;-72
2021/08/24 06:55:01;;;;;;;10.20;9.20;;;15.80;99.90;;;;;;5091363;28;20532;-72
2021/08/24 06:57:27;;;;;;;8.90;8.00;;;15.80;99.90;;;;;;5091302;28;21023;-72
2021/08/24 06:59:54;;;;;;;8.83;7.93;;;15.90;99.90;;;;;;5090452;28;20533;-71
2021/08/24 07:02:21;;;;;;;10.13;7.00;;;15.80;99.90;;;;;;5091127;28;20467;-71
2021/08/24 07:04:48;;;;;;;10.00;7.10;;;15.70;99.90;;;;;;5090961;28;20500;-71
2021/08/24 07:07:15;;;;;;;8.57;7.77;;;15.60;99.90;;;;;;5091322;28;20485;-71
2021/08/24 07:09:43;;;;;;;7.70;6.57;;;15.50;99.90;;;;;;5090293;28;20526;-72
2021/08/24 07:12:10;;;;;;;6.77;6.07;;;15.40;99.90;;;;;;5091573;28;20466;-72
2021/08/24 07:14:37;;;;;;;10.50;7.63;;;15.40;99.90;;;;;;5090859;28;20449;-72
2021/08/24 07:17:04;;;;;;;8.07;6.80;;;15.40;99.90;;;;;;5091097;28;20477;-71
2021/08/24 07:19:31;;;;;;;8.73;7.83;;;15.50;99.90;;;;;;5090107;28;20519;-72
2021/08/24 07:21:58;;;;;;;7.93;6.63;;;15.40;99.90;;;;;;5098576;27;20904;-70
2021/08/24 07:24:25;;;;;;;8.17;7.37;;;15.30;99.90;;;;;;5118603;27;20962;-71
2021/08/24 07:26:53;;;;;;;8.67;7.33;;;15.30;99.90;;;;;;5099785;27;20512;-69
2021/08/24 07:29:20;;;;;;;8.13;6.63;;;15.40;99.90;;;;;;5107509;27;20452;-70
2021/08/24 07:31:47;;;;;;;10.17;7.13;;;15.40;99.90;;;;;;5101272;27;20471;-69
2021/08/24 07:34:14;;;;;;;7.23;6.50;;;15.40;99.90;;;;;;5103618;27;20453;-68
2021/08/24 07:36:42;;;;;;;6.80;5.73;;;15.30;99.90;;;;;;5103792;27;20824;-68
2021/08/24 07:39:09;;;;;;;7.77;6.97;;;15.20;99.90;;;;;;5100537;27;20460;-71
2021/08/24 07:41:36;;;;;;;9.40;7.30;;;15.30;99.90;;;;;;5116975;27;20468;-71
2021/08/24 07:44:05;;;;;;;8.70;7.80;;;15.30;99.90;;;;;;5114775;27;20451;-68
2021/08/24 07:46:32;;;;;;;9.00;8.10;;;15.50;99.90;;;;;;5113757;27;20469;-71
2021/08/24 07:48:59;;;;;;;7.80;6.90;;;15.50;99.90;;;;;;5120591;27;20444;-68
2021/08/24 07:51:26;;;;;;;9.30;7.20;;;15.80;99.90;;;;;;5111864;27;20560;-68
2021/08/24 07:53:53;;;;;;;8.60;7.10;;;16.00;99.90;;;;;;5096398;27;20537;-68
2021/08/24 07:56:21;;;;;;;7.13;5.73;;;16.30;99.90;;;;;;5099065;27;20578;-69
2021/08/24 07:58:48;;;;;;;7.00;6.03;;;16.50;99.90;;;;;;5096950;27;20457;-70
2021/08/24 08:01:17;;;;;;;8.47;7.20;;;16.60;99.90;;;;;;5099382;27;20437;-68
2021/08/24 08:03:44;;;;;;;6.70;6.00;;;16.60;99.90;;;;;;5104029;27;20445;-67
2021/08/24 08:06:11;;;;;;;7.33;5.70;;;16.50;99.90;;;;;;5111061;27;20487;-68
2021/08/24 08:08:38;;;;;;;6.63;5.93;;;16.50;99.90;;;;;;5121075;27;20453;-67
2021/08/24 08:11:04;;;;;;;7.87;5.80;;;16.60;99.90;;;;;;5112915;27;21386;-69
2021/08/24 08:13:31;;;;;;;7.10;6.33;;;16.90;99.90;;;;;;5109798;28;20445;-69
2021/08/24 08:15:59;;;;;;;6.70;5.97;;;17.30;99.90;;;;;;5109970;28;21144;-68
2021/08/24 08:18:27;;;;;;;6.50;5.73;;;17.40;99.90;;;;;;5109728;28;20456;-68
2021/08/24 08:20:54;;;;;;;8.63;6.57;;;17.40;99.90;;;;;;5109392;28;20552;-67
2021/08/24 08:23:21;;;;;;;6.47;4.93;;;17.90;99.90;;;;;;5110119;28;20524;-69
2021/08/24 08:25:48;;;;;;;7.70;5.60;;;18.20;99.90;;;;;;5109779;28;20833;-68
2021/08/24 08:28:15;;;;;;;8.40;4.83;;;17.90;99.90;;;;;;5111612;28;20490;-70
2021/08/24 08:30:43;;;;;;;5.70;5.03;;;18.10;99.90;;;;;;5109206;28;20496;-69
2021/08/24 08:33:10;;;;;;;7.13;6.10;;;18.30;99.90;;;;;;5110131;28;20876;-68
2021/08/24 08:35:38;;;;;;;6.33;5.00;;;18.70;99.90;;;;;;5100366;28;20442;-68
2021/08/24 08:38:05;;;;;;;5.17;4.67;;;19.10;99.90;;;;;;5098496;28;20441;-69
2021/08/24 08:40:40;;;;;;;6.53;4.80;;;19.50;99.90;;;;;;5093426;28;20453;-68
2021/08/24 08:43:17;;;;;;;5.90;4.73;;;19.10;99.90;;;;;;5089763;28;20422;-68
2021/08/24 08:45:49;;;;;;;7.27;4.97;;;19.30;99.90;;;;;;5089387;28;20773;-66
2021/08/24 08:48:26;;;;;;;5.37;4.30;;;19.50;99.90;;;;;;5089753;28;20517;-68
2021/08/24 08:50:58;;;;;;;8.47;5.53;;;19.40;99.90;;;;;;5088979;28;20458;-68
2021/08/24 08:53:34;;;;;;;7.03;5.50;;;19.10;99.90;;;;;;5108439;28;20475;-68
2021/08/24 08:56:06;;;;;;;6.17;5.37;;;18.40;99.90;;;;;;5109573;28;20812;-68
2021/08/24 08:58:43;;;;;;;6.17;5.10;;;18.10;99.90;;;;;;5108909;28;20935;-69
2021/08/24 09:01:15;;;;;;;7.80;4.27;;;18.40;99.90;;;;;;5109533;28;20903;-69
2021/08/24 09:03:50;;;;;;;6.20;4.90;;;19.00;99.90;;;;;;5110066;28;20451;-68
2021/08/24 09:06:19;;;;;;;6.17;4.83;;;18.80;99.90;;;;;;5109811;28;20495;-69
2021/08/24 09:08:47;;;;;;;6.20;4.17;;;18.50;99.90;;;;;;5110856;28;20947;-69
2021/08/24 09:11:15;;;;;;;7.90;4.20;;;18.60;99.90;;;;;;5113172;28;21142;-69
2021/08/24 09:13:47;;;;;;;4.70;3.50;;;18.80;99.90;;;;;;5114261;28;20519;-70
2021/08/24 09:16:26;;;;;;;4.37;3.90;;;19.10;99.90;;;;;;5114277;28;20432;-70
2021/08/24 09:18:57;;;;;;;4.67;3.50;;;19.50;99.90;;;;;;5113536;28;21022;-70
2021/08/24 09:21:29;;;;;;;5.73;3.50;;;19.60;99.90;;;;;;5113394;28;20465;-71
2021/08/24 09:23:58;;;;;;;5.50;3.50;;;19.80;99.90;;;;;;5114171;28;20432;-70
2021/08/24 09:26:48;;;;;;;6.10;3.50;;;20.10;99.90;;;;;;5113778;28;20564;-70
2021/08/24 09:29:16;;;;;;;7.10;4.53;;;20.50;99.90;;;;;;5113049;28;20457;-70
2021/08/24 09:31:45;;;;;;;7.47;3.57;;;20.50;99.90;;;;;;5114064;28;20467;-70
2021/08/24 09:34:14;;;;;;;4.20;3.20;;;20.20;99.90;;;;;;5113246;28;20528;-69
2021/08/24 09:36:42;;;;;;;6.00;3.67;;;20.00;99.90;;;;;;5113687;28;20441;-70
2021/08/24 09:39:10;;;;;;;5.77;3.90;;;20.10;99.90;;;;;;5112891;28;20444;-70
2021/08/24 09:41:39;;;;;;;7.37;4.27;;;20.00;99.90;;;;;;5111392;27;20575;-70
2021/08/24 09:44:22;;;;;;;4.17;3.73;;;19.90;99.90;;;;;;5118799;27;20445;-70
2021/08/24 09:46:51;;;;;;;5.17;4.27;;;19.80;99.90;;;;;;5119749;27;20494;-70
2021/08/24 09:49:38;;;;;;;4.57;3.90;;;19.60;99.90;;;;;;5109374;27;20449;-69
2021/08/24 09:52:10;;;;;;;5.57;3.63;;;19.60;99.90;;;;;;5107409;27;20461;-69
2021/08/24 09:54:40;;;;;;;4.30;3.90;;;19.50;99.90;;;;;;5117957;27;20449;-69
2021/08/24 09:57:18;;;;;;;5.37;4.10;;;19.50;99.90;;;;;;5109414;27;20442;-70
2021/08/24 09:59:49;;;;;;;9.37;4.10;;;19.50;99.90;;;;;;5104220;27;20484;-70
2021/08/24 10:02:43;;;;;;;5.10;4.17;;;19.50;99.90;;;;;;5113877;27;20491;-70
2021/08/24 10:05:14;;;;;;;4.90;4.33;;;19.50;99.90;;;;;;5081593;27;20457;-69
2021/08/24 10:07:44;;;;;;;5.63;4.00;;;19.40;99.90;;;;;;5117114;27;20872;-71
2021/08/24 10:10:24;;;;;;;5.90;4.20;;;19.40;99.90;;;;;;5110881;28;20449;-67
2021/08/24 10:12:52;;;;;;;7.07;4.03;;;18.80;99.90;;;;;;5122415;27;20528;-70
2021/08/24 10:15:29;;;;;;;5.23;4.53;;;18.30;99.90;;;;;;5123526;27;20460;-70
2021/08/24 10:18:06;;;;;;;6.00;4.50;;;17.80;99.90;;;;;;5133223;27;20542;-77
2021/08/24 10:20:36;;;;;;;5.57;4.10;;;17.80;99.90;;;;;;5130107;27;20860;-69
2021/08/24 10:23:08;;;;;;;6.00;4.83;;;18.10;99.90;;;;;;5114240;27;20451;-69
2021/08/24 10:25:43;;;;;;;4.73;4.10;;;18.40;99.90;;;;;;5122972;27;20958;-70
2021/08/24 10:28:18;;;;;;;4.70;4.10;;;18.80;99.90;;;;;;5132257;27;20484;-69
2021/08/24 10:30:51;;;;;;;6.43;4.67;;;18.70;99.90;;;;;;5131296;27;20467;-67
2021/08/24 10:33:30;;;;;;;4.13;3.60;;;18.80;99.90;;;;;;5113117;27;20661;-68
2021/08/24 10:36:07;;;;;;;5.50;4.70;;;18.80;99.90;;;;;;5114772;27;20469;-69
2021/08/24 10:38:45;;;;;;;5.30;4.00;;;19.00;99.90;;;;;;5114607;27;20439;-68
2021/08/24 10:41:25;;;;;;;4.60;4.00;;;19.00;99.90;;;;;;5111249;27;20515;-69
2021/08/24 10:43:56;;;;;;;5.33;4.83;;;19.20;99.90;;;;;;5115905;27;20437;-68
2021/08/24 10:46:24;;;;;;;4.90;3.77;;;18.90;99.90;;;;;;5102614;27;20532;-69
2021/08/24 10:48:51;;;;;;;4.33;3.90;;;18.90;99.90;;;;;;5106662;27;20448;-69
2021/08/24 10:51:32;;;;;;;7.53;4.20;;;19.20;99.90;;;;;;5110783;27;20478;-69
2021/08/24 10:54:23;;;;;;;4.87;3.60;;;19.30;99.90;;;;;;5115449;27;20444;-68
2021/08/24 10:56:57;;;;;;;5.30;4.33;;;19.80;99.90;;;;;;5107949;27;20440;-68
2021/08/24 10:59:36;;;;;;;4.73;3.87;;;20.20;99.90;;;;;;5113708;27;20458;-69
2021/08/24 11:02:16;;;;;;;5.73;4.37;;;20.30;99.90;;;;;;5120214;27;20550;-70
2021/08/24 11:04:59;;;;;;;5.50;4.43;;;20.10;99.90;;;;;;5110896;28;20523;-68
2021/08/24 11:07:39;;;;;;;4.47;3.43;;;20.20;99.90;;;;;;5108201;28;20885;-68
2021/08/24 11:10:18;;;;;;;5.43;3.80;;;20.10;99.90;;;;;;5105549;28;20445;-70
2021/08/24 11:13:00;;;;;;;5.43;4.07;;;20.10;99.90;;;;;;5111489;28;20469;-68
2021/08/24 11:15:40;;;;;;;4.20;3.80;;;20.20;99.90;;;;;;5108537;28;20520;-68
2021/08/24 11:18:15;;;;;;;3.80;3.30;;;20.40;99.90;;;;;;5098106;27;20533;-68
2021/08/24 11:20:46;;;;;;;4.80;3.87;;;20.40;99.90;;;;;;5098154;27;20454;-69
2021/08/24 11:23:23;;;;;;;3.60;3.03;;;20.30;99.90;;;;;;5102303;27;20961;-68
2021/08/24 11:25:57;;;;;;;4.23;3.83;;;19.60;99.90;;;;;;5099071;27;21335;-70
2021/08/24 11:28:37;;;;;;;4.73;4.23;;;19.70;99.90;;;;;;5100472;27;20481;-69
2021/08/24 11:31:10;;;;;;;4.70;3.67;;;19.80;99.90;;;;;;5100461;27;20505;-68
2021/08/24 11:33:41;;;;;;;5.60;3.40;;;19.60;99.90;;;;;;5101624;27;20964;-68
2021/08/24 11:36:22;;;;;;;4.30;3.90;;;19.60;99.90;;;;;;5126879;27;20433;-68
2021/08/24 11:38:59;;;;;;;4.57;4.17;;;19.50;99.90;;;;;;5110120;28;20522;-68
2021/08/24 11:41:29;;;;;;;6.93;4.80;;;19.20;99.90;;;;;;5109834;28;20899;-68
2021/08/24 11:44:02;;;;;;;8.53;4.40;;;18.70;99.90;;;;;;5110375;28;20448;-67
2021/08/24 11:46:33;;;;;;;7.60;4.80;;;18.20;99.90;;;;;;5109681;28;20510;-68
2021/08/24 11:49:07;;;;;;;5.03;4.40;;;18.20;99.90;;;;;;5107554;28;20464;-68
2021/08/24 11:51:37;;;;;;;5.63;4.93;;;18.20;99.90;;;;;;5110351;28;20469;-68
2021/08/24 11:54:12;;;;;;;7.07;4.50;;;18.20;99.90;;;;;;5110847;28;20437;-68
2021/08/24 11:56:50;;;;;;;7.50;4.20;;;18.40;99.90;;;;;;5110463;28;21038;-68
2021/08/24 11:59:24;;;;;;;5.97;4.63;;;18.60;99.90;;;;;;5110328;28;20459;-69
2021/08/24 12:01:51;;;;;;;5.80;4.83;;;18.60;99.90;;;;;;5110620;28;20469;-68
2021/08/24 12:04:22;;;;;;;5.63;4.73;;;18.80;99.90;;;;;;5109882;28;20882;-67
2021/08/24 12:06:53;;;;;;;6.63;4.60;;;19.00;99.90;;;;;;5110047;28;20796;-67
2021/08/24 12:09:38;;;;;;;5.13;4.27;;;19.00;99.90;;;;;;5109554;28;20458;-69
2021/08/24 12:12:08;;;;;;;6.17;4.63;;;19.20;99.90;;;;;;5104738;27;20568;-69
2021/08/24 12:14:40;;;;;;;7.33;4.67;;;19.50;99.90;;;;;;5119089;27;20539;-69
2021/08/24 12:17:22;;;;;;;6.10;4.37;;;19.80;99.90;;;;;;5103300;27;20484;-69
2021/08/24 12:19:56;;;;;;;5.70;4.10;;;19.50;99.90;;;;;;5095695;28;20477;-68
2021/08/24 12:22:29;;;;;;;6.53;4.90;;;19.40;99.90;;;;;;5100176;28;20457;-69
2021/08/24 12:24:59;;;;;;;5.90;5.13;;;19.50;99.90;;;;;;5095127;28;20453;-69
2021/08/24 12:28:03;;;;;;;7.27;4.30;;;19.50;99.90;;;;;;5099403;28;20576;-67
2021/08/24 12:30:33;;;;;;;7.17;4.43;;;19.50;99.90;;;;;;5106138;28;20441;-69
2021/08/24 12:33:27;;;;;;;6.30;4.73;;;19.40;99.90;;;;;;5106406;28;20430;-68
2021/08/24 12:35:55;;;;;;;4.70;3.90;;;19.20;99.90;;;;;;5106544;27;20434;-69
2021/08/24 12:38:41;;;;;;;4.57;4.07;;;19.50;99.90;;;;;;5120180;27;20513;-69
2021/08/24 12:41:08;;;;;;;5.50;4.93;;;19.60;99.90;;;;;;5123745;27;20480;-70
2021/08/24 12:43:45;;;;;;;6.83;4.67;;;19.40;99.90;;;;;;5110595;27;20455;-70
2021/08/24 12:46:35;;;;;;;5.37;4.83;;;19.20;99.90;;;;;;5109302;27;21041;-70
2021/08/24 12:49:39;;;;;;;4.40;4.00;;;19.30;99.90;;;;;;5102429;28;20481;-69
2021/08/24 12:52:35;;;;;;;4.77;4.07;;;19.30;99.90;;;;;;5116714;27;20553;-69
2021/08/24 12:55:15;;;;;;;5.60;4.13;;;19.40;99.90;;;;;;5127192;28;20416;-67
2021/08/24 12:57:46;;;;;;;4.90;4.40;;;19.30;99.90;;;;;;5127160;28;20421;-68